createdAt,value
2018-09-23T00:01:39.490Z,8.57
2018-09-23T00:04:08.153Z,8.57
2018-09-23T00:06:36.760Z,8.54
2018-09-23T00:09:07.456Z,8.49
2018-09-23T00:11:36.036Z,8.45
2018-09-23T00:14:04.683Z,8.41
2018-09-23T00:16:33.290Z,8.36
2018-09-23T00:19:01.919Z,8.33
2018-09-23T00:21:30.511Z,8.33
2018-09-23T00:23:59.122Z,8.31
2018-09-23T00:26:27.721Z,8.28
2018-09-23T00:28:56.351Z,8.28
2018-09-23T00:31:24.964Z,8.27
2018-09-23T00:33:53.593Z,8.21
2018-09-23T00:36:22.176Z,8.16
2018-09-23T00:38:50.843Z,8.09
2018-09-23T00:41:19.439Z,8.02
2018-09-23T00:43:48.052Z,7.97
2018-09-23T00:46:16.675Z,7.92
2018-09-23T00:48:45.286Z,7.88
2018-09-23T00:51:13.891Z,7.84
2018-09-23T00:53:42.606Z,7.83
2018-09-23T00:56:11.215Z,7.80
2018-09-23T00:58:39.847Z,7.80
2018-09-23T01:01:10.633Z,7.78
2018-09-23T01:03:39.255Z,7.73
2018-09-23T01:06:07.874Z,7.68
2018-09-23T01:08:36.597Z,7.65
2018-09-23T01:11:05.198Z,7.65
2018-09-23T01:13:33.814Z,7.67
2018-09-23T01:16:02.404Z,7.70
2018-09-23T01:18:31.025Z,7.75
2018-09-23T01:20:59.641Z,7.79
2018-09-23T01:23:28.352Z,7.84
2018-09-23T01:25:56.956Z,7.88
2018-09-23T01:28:25.588Z,7.96
2018-09-23T01:30:54.214Z,8.01
2018-09-23T01:33:22.857Z,8.01
2018-09-23T01:35:51.455Z,8.02
2018-09-23T01:38:20.095Z,8.02
2018-09-23T01:40:48.727Z,8.02
2018-09-23T01:43:17.329Z,8.04
2018-09-23T01:45:46.998Z,8.04
2018-09-23T01:48:15.594Z,8.06
2018-09-23T01:50:44.219Z,8.11
2018-09-23T01:53:12.818Z,8.15
2018-09-23T01:55:41.435Z,8.19
2018-09-23T01:58:10.036Z,8.21
2018-09-23T02:00:38.676Z,8.20
2018-09-23T02:03:07.327Z,8.18
2018-09-23T02:05:35.965Z,8.15
2018-09-23T02:08:04.567Z,8.16
2018-09-23T02:10:33.197Z,8.12
2018-09-23T02:13:01.795Z,8.08
2018-09-23T02:15:30.418Z,8.02
2018-09-23T02:17:59.018Z,7.95
2018-09-23T02:20:27.644Z,7.88
2018-09-23T02:22:56.246Z,7.81
2018-09-23T02:25:24.876Z,7.75
2018-09-23T02:27:53.506Z,7.69
2018-09-23T02:30:22.135Z,7.64
2018-09-23T02:32:50.759Z,7.59
2018-09-23T02:35:21.644Z,7.53
2018-09-23T02:37:50.449Z,7.48
2018-09-23T02:40:19.070Z,7.47
2018-09-23T02:42:47.660Z,7.44
2018-09-23T02:45:16.291Z,7.39
2018-09-23T02:47:44.934Z,7.37
2018-09-23T02:50:13.631Z,7.37
2018-09-23T02:52:42.222Z,7.35
2018-09-23T02:55:10.866Z,7.34
2018-09-23T02:57:39.448Z,7.32
2018-09-23T03:00:08.090Z,7.37
2018-09-23T03:02:36.695Z,7.44
2018-09-23T03:05:05.338Z,7.49
2018-09-23T03:07:33.983Z,7.55
2018-09-23T03:10:02.618Z,7.59
2018-09-23T03:12:31.207Z,7.61
2018-09-23T03:14:59.837Z,7.59
2018-09-23T03:17:28.443Z,7.58
2018-09-23T03:19:57.110Z,7.58
2018-09-23T03:22:25.706Z,7.62
2018-09-23T03:24:54.341Z,7.67
2018-09-23T03:27:22.951Z,7.70
2018-09-23T03:29:51.576Z,7.75
2018-09-23T03:32:20.195Z,7.76
2018-09-23T03:34:48.806Z,7.75
2018-09-23T03:37:17.409Z,7.76
2018-09-23T03:39:46.063Z,7.79
2018-09-23T03:42:15.089Z,7.76
2018-09-23T03:44:43.707Z,7.75
2018-09-23T03:47:12.334Z,7.77
2018-09-23T03:49:40.992Z,7.76
2018-09-23T03:52:09.618Z,7.76
2018-09-23T03:54:38.225Z,7.76
2018-09-23T03:57:06.856Z,7.75
2018-09-23T03:59:35.455Z,7.72
2018-09-23T04:02:04.107Z,7.68
2018-09-23T04:04:32.686Z,7.66
2018-09-23T04:07:01.335Z,7.66
2018-09-23T04:09:29.937Z,7.65
2018-09-23T04:11:58.575Z,7.66
2018-09-23T04:14:27.178Z,7.64
2018-09-23T04:16:55.786Z,7.60
2018-09-23T04:19:24.382Z,7.57
2018-09-23T04:21:53.009Z,7.54
2018-09-23T04:24:21.633Z,7.49
2018-09-23T04:26:50.255Z,7.49
2018-09-23T04:29:18.852Z,7.52
2018-09-23T04:31:47.575Z,7.54
2018-09-23T04:34:16.182Z,7.54
2018-09-23T04:36:44.815Z,7.48
2018-09-23T04:39:13.464Z,7.41
2018-09-23T04:41:42.079Z,7.34
2018-09-23T04:44:10.765Z,7.25
2018-09-23T04:46:39.406Z,7.15
2018-09-23T04:49:08.011Z,7.07
2018-09-23T04:51:36.634Z,6.97
2018-09-23T04:54:05.245Z,6.89
2018-09-23T04:56:33.857Z,6.80
2018-09-23T04:59:02.454Z,6.71
2018-09-23T05:01:31.093Z,6.62
2018-09-23T05:03:59.685Z,6.55
2018-09-23T05:06:28.313Z,6.49
2018-09-23T05:08:56.910Z,6.42
2018-09-23T05:11:25.535Z,6.41
2018-09-23T05:13:54.204Z,6.42
2018-09-23T05:16:22.930Z,6.39
2018-09-23T05:18:51.511Z,6.32
2018-09-23T05:21:20.136Z,6.37
2018-09-23T05:23:48.733Z,6.37
2018-09-23T05:26:17.357Z,6.47
2018-09-23T05:28:45.946Z,6.51
2018-09-23T05:31:14.574Z,6.57
2018-09-23T05:33:43.198Z,6.60
2018-09-23T05:36:11.816Z,6.70
2018-09-23T05:38:40.406Z,6.84
2018-09-23T05:41:09.017Z,7.04
2018-09-23T05:43:37.662Z,7.14
2018-09-23T05:46:06.677Z,7.19
2018-09-23T05:48:35.265Z,7.21
2018-09-23T05:51:03.914Z,7.29
2018-09-23T05:53:32.537Z,7.37
2018-09-23T05:56:01.146Z,7.45
2018-09-23T05:58:29.772Z,7.53
2018-09-23T06:00:58.428Z,7.60
2018-09-23T06:03:27.056Z,7.64
2018-09-23T06:05:55.660Z,7.71
2018-09-23T06:08:24.279Z,7.78
2018-09-23T06:10:52.887Z,7.85
2018-09-23T06:13:21.572Z,7.91
2018-09-23T06:15:50.175Z,7.98
2018-09-23T06:18:18.781Z,8.09
2018-09-23T06:20:47.432Z,8.18
2018-09-23T06:23:16.033Z,8.26
2018-09-23T06:25:44.642Z,8.32
2018-09-23T06:28:13.351Z,8.41
2018-09-23T06:30:41.955Z,8.51
2018-09-23T06:33:10.591Z,8.57
2018-09-23T06:35:39.180Z,8.64
2018-09-23T06:38:07.806Z,8.71
2018-09-23T06:40:36.399Z,8.77
2018-09-23T06:43:05.128Z,8.83
2018-09-23T06:45:33.744Z,8.85
2018-09-23T06:48:02.360Z,8.98
2018-09-23T06:50:30.972Z,9.10
2018-09-23T06:52:59.586Z,9.25
2018-09-23T06:55:28.231Z,9.43
2018-09-23T06:57:56.902Z,9.62
2018-09-23T07:00:25.508Z,9.79
2018-09-23T07:02:54.163Z,10.01
2018-09-23T07:05:22.832Z,10.07
2018-09-23T07:07:51.534Z,10.18
2018-09-23T07:10:20.169Z,10.24
2018-09-23T07:12:48.862Z,10.24
2018-09-23T07:15:17.468Z,10.31
2018-09-23T07:17:46.161Z,10.35
2018-09-23T07:20:14.787Z,10.39
2018-09-23T07:22:43.723Z,10.46
2018-09-23T07:25:12.343Z,10.54
2018-09-23T07:27:40.983Z,10.61
2018-09-23T07:30:09.644Z,10.73
2018-09-23T07:32:38.281Z,10.82
2018-09-23T07:35:07.006Z,10.98
2018-09-23T07:37:35.718Z,11.01
2018-09-23T07:40:04.456Z,11.12
2018-09-23T07:42:33.067Z,11.17
2018-09-23T07:45:01.716Z,11.35
2018-09-23T07:47:30.353Z,11.49
2018-09-23T07:49:58.997Z,11.59
2018-09-23T07:52:27.614Z,11.63
2018-09-23T07:54:56.247Z,11.56
2018-09-23T07:57:24.889Z,11.50
2018-09-23T07:59:53.508Z,11.50
2018-09-23T08:02:22.112Z,11.57
2018-09-23T08:04:50.796Z,11.70
2018-09-23T08:07:19.428Z,11.68
2018-09-23T08:09:48.051Z,11.69
2018-09-23T08:12:16.692Z,11.80
2018-09-23T08:14:45.677Z,11.90
2018-09-23T08:17:14.021Z,11.92
2018-09-23T08:19:42.814Z,11.88
2018-09-23T08:22:11.283Z,11.90
2018-09-23T08:24:39.915Z,11.93
2018-09-23T08:27:08.526Z,11.95
2018-09-23T08:29:37.141Z,12.02
2018-09-23T08:32:05.802Z,12.16
2018-09-23T08:34:34.430Z,12.26
2018-09-23T08:37:03.026Z,12.43
2018-09-23T08:39:31.669Z,12.54
2018-09-23T08:42:00.300Z,12.61
2018-09-23T08:44:28.917Z,12.72
2018-09-23T08:46:57.536Z,12.76
2018-09-23T08:49:26.165Z,12.81
2018-09-23T08:51:54.804Z,12.84
2018-09-23T08:54:23.489Z,12.86
2018-09-23T08:56:52.103Z,12.85
2018-09-23T08:59:20.810Z,12.89
2018-09-23T09:01:49.408Z,12.89
2018-09-23T09:04:18.082Z,12.88
2018-09-23T09:06:46.680Z,12.92
2018-09-23T09:09:15.303Z,12.89
2018-09-23T09:11:43.920Z,12.99
2018-09-23T09:14:12.563Z,12.86
2018-09-23T09:16:41.171Z,12.69
2018-09-23T09:19:09.792Z,12.56
2018-09-23T09:21:38.385Z,12.49
2018-09-23T09:24:07.026Z,12.49
2018-09-23T09:26:35.664Z,12.59
2018-09-23T09:29:04.266Z,12.59
2018-09-23T09:31:33.019Z,12.61
2018-09-23T09:34:01.653Z,12.74
2018-09-23T09:36:30.261Z,12.85
2018-09-23T09:38:58.908Z,12.90
2018-09-23T09:41:27.536Z,12.77
2018-09-23T09:43:56.323Z,12.76
2018-09-23T09:46:24.882Z,12.91
2018-09-23T09:48:53.512Z,13.01
2018-09-23T09:51:22.111Z,13.17
2018-09-23T09:53:50.725Z,13.20
2018-09-23T09:56:19.335Z,13.31
2018-09-23T09:58:47.959Z,13.39
2018-09-23T10:01:16.563Z,13.44
2018-09-23T10:03:45.236Z,13.42
2018-09-23T10:06:13.917Z,13.41
2018-09-23T10:08:42.512Z,13.47
2018-09-23T10:11:11.168Z,13.47
2018-09-23T10:13:39.771Z,13.60
2018-09-23T10:16:08.421Z,13.51
2018-09-23T10:18:37.091Z,13.38
2018-09-23T10:21:05.750Z,13.38
2018-09-23T10:23:34.486Z,13.54
2018-09-23T10:26:03.074Z,13.66
2018-09-23T10:28:31.673Z,13.76
2018-09-23T10:31:00.373Z,13.78
2018-09-23T10:33:28.968Z,13.90
2018-09-23T10:35:57.622Z,13.95
2018-09-23T10:38:26.264Z,13.93
2018-09-23T10:40:54.907Z,13.94
2018-09-23T10:43:23.499Z,13.91
2018-09-23T10:45:52.238Z,13.91
2018-09-23T10:48:20.913Z,14.00
2018-09-23T10:50:49.739Z,14.04
2018-09-23T10:53:18.331Z,14.11
2018-09-23T10:55:47.010Z,14.06
2018-09-23T10:58:15.631Z,14.09
2018-09-23T11:00:45.015Z,14.02
2018-09-23T11:03:14.263Z,13.94
2018-09-23T11:05:43.760Z,13.85
2018-09-23T11:08:13.912Z,13.84
2018-09-23T11:10:44.163Z,13.71
2018-09-23T11:13:13.531Z,13.62
2018-09-23T11:15:43.190Z,13.58
2018-09-23T11:18:13.092Z,13.51
2018-09-23T11:20:42.933Z,13.54
2018-09-23T11:23:13.027Z,13.46
2018-09-23T11:25:43.067Z,13.53
2018-09-23T11:28:13.205Z,13.53
2018-09-23T11:30:41.910Z,13.54
2018-09-23T11:33:10.514Z,13.50
2018-09-23T11:35:39.121Z,13.49
2018-09-23T11:38:14.062Z,13.48
2018-09-23T11:40:42.647Z,13.38
2018-09-23T11:43:11.273Z,13.40
2018-09-23T11:45:39.886Z,13.43
2018-09-23T11:48:08.487Z,13.45
2018-09-23T11:50:37.103Z,13.32
2018-09-23T11:53:05.826Z,13.28
2018-09-23T11:55:34.427Z,13.20
2018-09-23T11:58:03.026Z,13.18
2018-09-23T12:00:31.598Z,13.19
2018-09-23T12:03:00.272Z,13.28
2018-09-23T12:05:28.871Z,13.35
2018-09-23T12:07:57.486Z,13.41
2018-09-23T12:10:26.118Z,13.34
2018-09-23T12:12:54.717Z,13.30
2018-09-23T12:15:23.294Z,13.37
2018-09-23T12:17:51.944Z,13.53
2018-09-23T12:20:20.561Z,13.44
2018-09-23T12:22:49.268Z,13.44
2018-09-23T12:25:17.885Z,13.38
2018-09-23T12:27:46.682Z,13.42
2018-09-23T12:30:15.283Z,13.42
2018-09-23T12:32:43.912Z,13.36
2018-09-23T12:35:12.527Z,13.31
2018-09-23T12:37:41.122Z,13.32
2018-09-23T12:40:09.782Z,13.32
2018-09-23T12:42:38.442Z,13.29
2018-09-23T12:45:07.134Z,13.21
2018-09-23T12:47:35.717Z,13.14
2018-09-23T12:50:04.470Z,13.13
2018-09-23T12:52:33.062Z,13.15
2018-09-23T12:55:01.660Z,13.19
2018-09-23T12:57:30.263Z,13.24
2018-09-23T12:59:58.885Z,13.24
2018-09-23T13:02:27.508Z,13.23
2018-09-23T13:04:56.121Z,13.24
2018-09-23T13:07:24.717Z,13.21
2018-09-23T13:09:53.391Z,13.18
2018-09-23T13:12:21.990Z,13.20
2018-09-23T13:14:50.683Z,13.22
2018-09-23T13:17:27.288Z,13.21
2018-09-23T13:19:55.912Z,13.17
2018-09-23T13:22:24.515Z,13.10
2018-09-23T13:24:53.113Z,13.04
2018-09-23T13:27:21.726Z,12.94
2018-09-23T13:29:50.352Z,12.87
2018-09-23T13:32:18.958Z,12.84
2018-09-23T13:34:47.556Z,12.79
2018-09-23T13:37:16.188Z,12.71
2018-09-23T13:39:44.770Z,12.68
2018-09-23T13:42:13.408Z,12.59
2018-09-23T13:44:42.005Z,12.55
2018-09-23T13:47:10.610Z,12.51
2018-09-23T13:49:39.261Z,12.43
2018-09-23T13:52:07.875Z,12.40
2018-09-23T13:54:36.455Z,12.38
2018-09-23T13:57:05.071Z,12.37
2018-09-23T13:59:33.663Z,12.33
2018-09-23T14:02:02.288Z,12.32
2018-09-23T14:04:30.881Z,12.33
2018-09-23T14:06:59.499Z,12.31
2018-09-23T14:09:28.112Z,12.31
2018-09-23T14:11:56.821Z,12.28
2018-09-23T14:14:25.431Z,12.25
2018-09-23T14:16:54.057Z,12.23
2018-09-23T14:19:22.664Z,12.21
2018-09-23T14:21:51.291Z,12.20
2018-09-23T14:24:19.890Z,12.20
2018-09-23T14:26:48.494Z,12.21
2018-09-23T14:29:17.116Z,12.23
2018-09-23T14:31:45.734Z,12.31
2018-09-23T14:34:14.349Z,12.42
2018-09-23T14:36:42.946Z,12.47
2018-09-23T14:39:12.231Z,12.51
2018-09-23T14:41:41.315Z,12.55
2018-09-23T14:44:09.951Z,12.57
2018-09-23T14:46:38.533Z,12.58
2018-09-23T14:49:07.136Z,12.65
2018-09-23T14:51:35.748Z,12.73
2018-09-23T14:54:04.389Z,12.81
2018-09-23T14:56:32.989Z,12.82
2018-09-23T14:59:01.690Z,12.78
2018-09-23T15:01:30.317Z,12.75
2018-09-23T15:03:58.934Z,12.70
2018-09-23T15:06:27.578Z,12.60
2018-09-23T15:08:56.189Z,12.49
2018-09-23T15:11:24.803Z,12.40
2018-09-23T15:13:53.512Z,12.28
2018-09-23T15:16:22.062Z,12.25
2018-09-23T15:18:50.676Z,12.24
2018-09-23T15:21:19.341Z,12.24
2018-09-23T15:23:47.924Z,12.21
2018-09-23T15:26:16.552Z,12.16
2018-09-23T15:28:45.140Z,12.14
2018-09-23T15:31:13.747Z,12.08
2018-09-23T15:33:42.355Z,12.02
2018-09-23T15:36:10.973Z,12.00
2018-09-23T15:38:39.608Z,11.99
2018-09-23T15:41:08.517Z,11.97
2018-09-23T15:43:37.425Z,11.96
2018-09-23T15:46:06.067Z,11.96
2018-09-23T15:48:34.788Z,11.97
2018-09-23T15:51:03.598Z,11.94
2018-09-23T15:53:32.261Z,11.92
2018-09-23T15:56:00.937Z,11.94
2018-09-23T15:58:29.973Z,11.92
2018-09-23T16:00:58.663Z,11.89
2018-09-23T16:03:27.331Z,11.85
2018-09-23T16:05:56.029Z,11.79
2018-09-23T16:08:24.685Z,11.73
2018-09-23T16:10:53.382Z,11.65
2018-09-23T16:13:22.042Z,11.59
2018-09-23T16:15:51.586Z,11.53
2018-09-23T16:18:20.273Z,11.50
2018-09-23T16:20:48.965Z,11.46
2018-09-23T16:23:17.621Z,11.46
2018-09-23T16:25:46.316Z,11.42
2018-09-23T16:28:15.019Z,11.40
2018-09-23T16:30:43.714Z,11.37
2018-09-23T16:33:12.447Z,11.33
2018-09-23T16:35:41.133Z,11.30
2018-09-23T16:38:09.899Z,11.23
2018-09-23T16:40:38.587Z,11.14
2018-09-23T16:43:07.260Z,11.05
2018-09-23T16:45:42.377Z,10.99
2018-09-23T16:48:11.035Z,10.95
2018-09-23T16:50:39.724Z,10.89
2018-09-23T16:53:08.397Z,10.85
2018-09-23T16:55:37.091Z,10.82
2018-09-23T16:58:05.811Z,10.90
2018-09-23T17:00:34.573Z,10.82
2018-09-23T17:03:03.224Z,10.72
2018-09-23T17:05:31.925Z,10.61
2018-09-23T17:08:00.604Z,10.54
2018-09-23T17:10:29.341Z,10.46
2018-09-23T17:12:58.002Z,10.43
2018-09-23T17:15:26.718Z,10.36
2018-09-23T17:17:55.385Z,10.29
2018-09-23T17:20:24.066Z,10.24
2018-09-23T17:22:52.897Z,10.22
2018-09-23T17:25:21.769Z,10.18
2018-09-23T17:27:50.635Z,10.13
2018-09-23T17:30:19.376Z,10.08
2018-09-23T17:32:48.097Z,9.99
2018-09-23T17:35:16.881Z,9.95
2018-09-23T17:37:45.566Z,9.89
2018-09-23T17:40:14.234Z,9.87
2018-09-23T17:42:42.925Z,9.88
2018-09-23T17:45:11.595Z,9.86
2018-09-23T17:47:40.300Z,9.85
2018-09-23T17:50:09.155Z,9.83
2018-09-23T17:52:37.879Z,9.82
2018-09-23T17:55:06.588Z,9.81
2018-09-23T17:57:35.274Z,9.81
2018-09-23T18:00:03.995Z,9.79
2018-09-23T18:02:32.696Z,9.76
2018-09-23T18:05:01.349Z,9.72
2018-09-23T18:07:30.040Z,9.73
2018-09-23T18:09:58.721Z,9.71
2018-09-23T18:12:27.416Z,9.70
2018-09-23T18:14:56.077Z,9.70
2018-09-23T18:17:24.763Z,9.68
2018-09-23T18:19:53.422Z,9.63
2018-09-23T18:22:22.108Z,9.62
2018-09-23T18:24:50.804Z,9.58
2018-09-23T18:27:19.485Z,9.53
2018-09-23T18:29:48.740Z,9.49
2018-09-23T18:32:17.483Z,9.42
2018-09-23T18:34:46.149Z,9.39
2018-09-23T18:37:14.887Z,9.35
2018-09-23T18:39:43.557Z,9.33
2018-09-23T18:42:12.251Z,9.33
2018-09-23T18:44:40.908Z,9.32
2018-09-23T18:47:09.597Z,9.30
2018-09-23T18:49:38.282Z,9.30
2018-09-23T18:52:06.963Z,9.32
2018-09-23T18:54:40.694Z,9.33
2018-09-23T18:57:09.384Z,9.33
2018-09-23T18:59:38.028Z,9.32
2018-09-23T19:02:06.728Z,9.29
2018-09-23T19:04:35.389Z,9.29
2018-09-23T19:07:04.405Z,9.29
2018-09-23T19:09:33.056Z,9.26
2018-09-23T19:12:01.753Z,9.27
2018-09-23T19:14:30.408Z,9.25
2018-09-23T19:16:59.115Z,9.26
2018-09-23T19:19:32.947Z,9.27
2018-09-23T19:22:04.452Z,9.26
2018-09-23T19:24:33.167Z,9.26
2018-09-23T19:27:01.984Z,9.25
2018-09-23T19:29:30.720Z,9.20
2018-09-23T19:31:59.391Z,9.18
2018-09-23T19:34:28.157Z,9.20
2018-09-23T19:36:56.804Z,9.19
2018-09-23T19:39:25.481Z,9.18
2018-09-23T19:41:54.154Z,9.15
2018-09-23T19:44:22.836Z,9.16
2018-09-23T19:46:51.495Z,9.14
2018-09-23T19:49:20.263Z,9.14
2018-09-23T19:51:48.913Z,9.13
2018-09-23T19:54:17.606Z,9.13
2018-09-23T19:56:46.264Z,9.14
2018-09-23T19:59:14.954Z,9.16
2018-09-23T20:01:43.607Z,9.16
2018-09-23T20:04:12.286Z,9.17
2018-09-23T20:06:41.055Z,9.23
2018-09-23T20:09:10.615Z,9.22
2018-09-23T20:11:39.308Z,9.20
2018-09-23T20:14:08.036Z,9.18
2018-09-23T20:16:36.689Z,9.18
2018-09-23T20:19:05.686Z,9.13
2018-09-23T20:21:34.509Z,9.10
2018-09-23T20:24:03.196Z,9.11
2018-09-23T20:26:31.886Z,9.07
2018-09-23T20:29:00.574Z,9.13
2018-09-23T20:31:29.255Z,9.11
2018-09-23T20:33:58.042Z,9.07
2018-09-23T20:36:26.697Z,9.04
2018-09-23T20:38:55.532Z,9.02
2018-09-23T20:41:24.233Z,8.97
2018-09-23T20:43:53.001Z,8.94
2018-09-23T20:46:21.665Z,8.92
2018-09-23T20:48:50.373Z,8.90
2018-09-23T20:51:19.048Z,8.87
2018-09-23T20:53:47.806Z,8.87
2018-09-23T20:56:16.460Z,8.87
2018-09-23T20:58:45.140Z,8.82
2018-09-23T21:01:13.799Z,8.79
2018-09-23T21:03:42.500Z,8.77
2018-09-23T21:06:11.241Z,8.79
2018-09-23T21:08:39.928Z,8.75
2018-09-23T21:11:08.588Z,8.73
2018-09-23T21:13:37.294Z,8.74
2018-09-23T21:16:06.003Z,8.76
2018-09-23T21:18:34.713Z,8.68
2018-09-23T21:21:03.384Z,8.68
2018-09-23T21:23:32.060Z,8.69
2018-09-23T21:26:00.725Z,8.68
2018-09-23T21:28:29.373Z,8.61
2018-09-23T21:30:58.072Z,8.62
2018-09-23T21:33:26.740Z,8.60
2018-09-23T21:35:55.433Z,8.58
2018-09-23T21:38:24.119Z,8.58
2018-09-23T21:40:52.808Z,8.64
2018-09-23T21:43:21.460Z,8.66
2018-09-23T21:45:50.161Z,8.62
2018-09-23T21:48:18.827Z,8.64
2018-09-23T21:50:47.515Z,8.59
2018-09-23T21:53:16.195Z,8.49
2018-09-23T21:55:44.937Z,8.44
2018-09-23T21:58:13.602Z,8.44
2018-09-23T22:00:42.877Z,8.45
2018-09-23T22:03:12.565Z,8.42
2018-09-23T22:05:41.345Z,8.41
2018-09-23T22:08:10.809Z,8.38
2018-09-23T22:10:39.499Z,8.37
2018-09-23T22:13:08.370Z,8.35
2018-09-23T22:15:37.068Z,8.33
2018-09-23T22:18:05.750Z,8.28
2018-09-23T22:20:34.421Z,8.26
2018-09-23T22:23:03.078Z,8.23
2018-09-23T22:25:31.780Z,8.22
2018-09-23T22:28:00.447Z,8.20
2018-09-23T22:30:29.141Z,8.22
2018-09-23T22:32:57.807Z,8.19
2018-09-23T22:35:26.488Z,8.17
2018-09-23T22:37:55.137Z,8.20
2018-09-23T22:40:23.809Z,8.22
2018-09-23T22:42:52.458Z,8.14
2018-09-23T22:45:21.147Z,8.11
2018-09-23T22:47:49.799Z,8.10
2018-09-23T22:50:18.483Z,8.12
2018-09-23T22:52:47.191Z,8.08
2018-09-23T22:55:16.052Z,8.05
2018-09-23T22:57:44.706Z,8.09
2018-09-23T23:00:13.401Z,8.07
2018-09-23T23:02:42.066Z,8.08
2018-09-23T23:05:10.765Z,8.01
2018-09-23T23:07:39.433Z,8.03
2018-09-23T23:10:08.143Z,7.97
2018-09-23T23:12:36.803Z,7.98
2018-09-23T23:15:05.660Z,8.01
2018-09-23T23:17:34.304Z,7.93
2018-09-23T23:20:03.008Z,7.90
2018-09-23T23:22:31.688Z,7.96
2018-09-23T23:25:00.394Z,8.03
2018-09-23T23:27:29.048Z,7.94
2018-09-23T23:29:57.752Z,7.87
2018-09-23T23:32:26.427Z,7.86
2018-09-23T23:34:55.084Z,7.87
2018-09-23T23:37:23.843Z,7.82
2018-09-23T23:39:52.520Z,7.79
2018-09-23T23:42:21.216Z,7.79
2018-09-23T23:44:50.043Z,7.78
2018-09-23T23:47:18.751Z,7.76
2018-09-23T23:49:47.450Z,7.73
2018-09-23T23:52:16.147Z,7.72
2018-09-23T23:54:44.816Z,7.66
2018-09-23T23:57:13.507Z,7.68
2018-09-23T23:59:42.171Z,7.78
